Time;durP1;ratioP1;P1;durP2;ratioP2;P2;SDS_P1;SDS_P2;PMS_P1;PMS_P2;Temp;Humidity;BMP_temperature;BMP_pressure;BME280_temperature;BME280_humidity;BME280_pressure;Samples;Min_cycle;Max_cycle;Signal;HPM_P1;HPM_P2
2021/07/08 00:01:37;;;;;;;1999.90;999.90;;;;;;;17.00;47.73;101513.13;5005232;27;101493;-73
2021/07/08 00:04:05;;;;;;;1999.90;999.90;;;;;;;16.92;47.92;101523.84;5006533;27;97569;-74
2021/07/08 00:06:33;;;;;;;1999.90;999.90;;;;;;;16.86;48.25;101526.50;5006636;27;97276;-74
2021/07/08 00:09:01;;;;;;;1999.90;999.90;;;;;;;16.82;48.40;101524.66;5019253;27;98880;-73
2021/07/08 00:11:30;;;;;;;1999.90;999.90;;;;;;;16.79;nan;101526.44;5013094;27;99419;-72
2021/07/08 00:13:58;;;;;;;1999.90;999.90;;;;;;;16.79;48.64;101518.34;5016080;27;98820;-73
2021/07/08 00:16:26;;;;;;;1999.90;999.90;;;;;;;16.77;48.56;101520.13;5008290;27;97489;-73
2021/07/08 00:18:54;;;;;;;1999.90;999.90;;;;;;;16.75;48.63;101513.84;5017671;27;100425;-74
2021/07/08 00:21:23;;;;;;;1999.90;999.90;;;;;;;16.76;48.66;101519.22;5004751;27;99773;-74
2021/07/08 00:23:50;;;;;;;1999.90;999.90;;;;;;;16.76;48.86;101518.34;4991394;28;96873;-72
2021/07/08 00:26:18;;;;;;;1999.90;999.90;;;;;;;16.73;48.99;101510.25;5004171;27;97404;-72
2021/07/08 00:28:47;;;;;;;1999.90;999.90;;;;;;;16.71;48.88;101514.69;5004525;27;99511;-75
2021/07/08 00:31:16;;;;;;;1999.90;999.90;;;;;;;16.68;49.15;101514.66;5012538;27;99232;-72
2021/07/08 00:33:43;;;;;;;1999.90;999.90;;;;;;;16.66;49.06;101513.75;5006116;27;98025;-73
2021/07/08 00:36:11;;;;;;;1999.90;999.90;;;;;;;16.65;49.17;101515.53;4993576;28;97308;-71
2021/07/08 00:38:39;;;;;;;1999.90;999.90;;;;;;;16.64;49.39;101518.19;5006481;27;99073;-72
2021/07/08 00:41:07;;;;;;;1999.90;999.90;;;;;;;16.63;49.41;101517.31;4990961;28;97906;-72
2021/07/08 00:43:35;;;;;;;1999.90;999.90;;;;;;;16.63;49.20;101514.63;5004919;27;97046;-74
2021/07/08 00:46:05;;;;;;;1999.90;999.90;;;;;;;16.65;49.57;101515.53;5007550;27;96898;-74
2021/07/08 00:48:33;;;;;;;1999.90;999.90;;;;;;;16.66;49.44;101501.22;4985909;28;100621;-74
2021/07/08 00:51:01;;;;;;;1999.90;999.90;;;;;;;16.67;49.14;101504.81;5005556;27;97979;-74
2021/07/08 00:53:29;;;;;;;1999.90;999.90;;;;;;;16.65;49.39;101511.97;5011885;27;97906;-73
2021/07/08 00:55:58;;;;;;;1999.90;999.90;;;;;;;16.65;49.72;101512.84;4998753;28;98230;-74
2021/07/08 00:58:26;;;;;;;1999.90;999.90;;;;;;;16.64;49.48;101513.75;5005660;27;97823;-74
2021/07/08 01:00:55;;;;;;;1999.90;999.90;;;;;;;16.62;49.67;101509.22;5005278;27;98032;-74
2021/07/08 01:03:24;;;;;;;1999.90;999.90;;;;;;;16.62;49.79;101510.13;5006984;27;97543;-71
2021/07/08 01:05:54;;;;;;;1999.90;999.90;;;;;;;16.60;49.55;101522.66;5008477;27;96983;-73
2021/07/08 01:08:22;;;;;;;1999.90;999.90;;;;;;;16.58;49.83;101520.88;4991411;28;99560;-72
2021/07/08 01:10:51;;;;;;;1999.90;999.90;;;;;;;16.58;49.83;101516.38;5012585;27;100868;-73
2021/07/08 01:13:20;;;;;;;1999.90;999.90;;;;;;;16.57;49.62;101510.97;5016428;27;97608;-73
2021/07/08 01:15:48;;;;;;;1999.90;999.90;;;;;;;16.55;49.83;101508.28;5005236;27;97716;-74
2021/07/08 01:18:16;;;;;;;1999.90;999.90;;;;;;;16.53;49.94;101504.69;5007594;27;97655;-74
2021/07/08 01:20:46;;;;;;;1999.90;999.90;;;;;;;16.52;49.85;101504.69;5005168;27;99251;-74
2021/07/08 01:23:15;;;;;;;1999.90;999.90;;;;;;;16.51;49.72;101498.41;5006130;27;97783;-73
2021/07/08 01:25:43;;;;;;;1999.90;999.90;;;;;;;16.49;49.95;101502.84;5005857;27;97323;-73
2021/07/08 01:28:12;;;;;;;1999.90;999.90;;;;;;;16.48;49.90;101495.69;5003796;27;98853;-73
2021/07/08 01:30:44;;;;;;;1999.90;999.90;;;;;;;16.48;49.97;101493.00;5015581;27;99465;-73
2021/07/08 01:33:12;;;;;;;1999.90;999.90;;;;;;;16.46;50.18;101499.25;5005207;27;97345;-71
2021/07/08 01:35:40;;;;;;;1999.90;999.90;;;;;;;16.46;50.19;101508.22;5010265;27;97183;-73
2021/07/08 01:38:08;;;;;;;1999.90;999.90;;;;;;;16.48;50.13;101505.53;5017560;27;97646;-71
2021/07/08 01:40:39;;;;;;;1999.90;999.90;;;;;;;16.46;50.13;101499.25;5005870;27;99678;-73
2021/07/08 01:43:07;;;;;;;1999.90;999.90;;;;;;;16.46;50.29;101496.56;5002510;27;97285;-74
2021/07/08 01:45:34;;;;;;;1999.90;999.90;;;;;;;16.43;50.25;101507.28;5014219;27;96957;-72
2021/07/08 01:48:03;;;;;;;1999.90;999.90;;;;;;;16.43;50.29;101499.22;5005486;27;97522;-74
2021/07/08 01:50:31;;;;;;;1999.90;999.90;;;;;;;16.43;50.28;101496.53;5004627;27;101318;-72
2021/07/08 01:52:58;;;;;;;1999.90;999.90;;;;;;;16.41;50.26;101499.22;5006445;27;96864;-73
2021/07/08 01:55:26;;;;;;;1999.90;999.90;;;;;;;16.41;50.51;101501.91;5005317;27;98060;-73
2021/07/08 01:57:57;;;;;;;1999.90;999.90;;;;;;;16.40;50.46;101512.63;5007042;27;99954;-73
2021/07/08 02:00:25;;;;;;;1999.90;999.90;;;;;;;16.38;50.41;101504.56;5005250;27;99176;-74
2021/07/08 02:02:54;;;;;;;1999.90;999.90;;;;;;;16.37;50.39;101502.75;5032838;27;97064;-72
2021/07/08 02:05:21;;;;;;;1999.90;999.90;;;;;;;16.38;50.56;101514.41;5001561;27;97996;-72
2021/07/08 02:07:49;;;;;;;1999.90;999.90;;;;;;;16.35;50.54;101509.91;5001659;27;100751;-73
2021/07/08 02:10:18;;;;;;;1999.90;999.90;;;;;;;16.36;50.24;101513.50;5003474;27;97601;-72
2021/07/08 02:12:47;;;;;;;1999.90;999.90;;;;;;;16.34;50.63;101515.28;5002131;27;97686;-72
2021/07/08 02:15:17;;;;;;;1999.90;999.90;;;;;;;16.33;50.59;101526.88;5001285;27;96983;-73
2021/07/08 02:17:44;;;;;;;1999.90;999.90;;;;;;;16.32;50.71;101525.09;5001853;27;97797;-72
2021/07/08 02:20:14;;;;;;;1999.90;999.90;;;;;;;16.29;50.40;101525.97;5002851;27;100775;-72
2021/07/08 02:22:42;;;;;;;1999.90;999.90;;;;;;;16.28;50.78;101518.81;5007187;27;97349;-74
2021/07/08 02:25:12;;;;;;;1999.90;999.90;;;;;;;16.29;50.73;101530.44;5001804;27;97555;-73
2021/07/08 02:27:40;;;;;;;1999.90;999.90;;;;;;;16.28;50.90;101524.16;5001419;27;97994;-73
2021/07/08 02:30:09;;;;;;;1999.90;999.90;;;;;;;16.26;50.71;101523.25;5009218;27;98023;-73
2021/07/08 02:32:38;;;;;;;1999.90;999.90;;;;;;;16.23;50.94;101522.31;5002356;27;97208;-73
2021/07/08 02:35:08;;;;;;;1999.90;999.90;;;;;;;16.23;50.97;101525.00;5001522;27;98404;-74
2021/07/08 02:37:37;;;;;;;1999.90;999.90;;;;;;;16.19;51.06;101528.53;5001898;27;97747;-73
2021/07/08 02:40:07;;;;;;;1999.90;999.90;;;;;;;16.18;51.19;101532.13;5000534;27;99363;-73
2021/07/08 02:42:34;;;;;;;1999.90;999.90;;;;;;;16.17;51.19;101533.91;5005424;27;97456;-73
2021/07/08 02:45:02;;;;;;;1999.90;999.90;;;;;;;16.14;50.93;101525.84;5001187;27;97997;-73
2021/07/08 02:47:30;;;;;;;1999.90;999.90;;;;;;;16.14;51.14;101519.56;5004835;27;97768;-70
2021/07/08 02:49:59;;;;;;;1999.90;999.90;;;;;;;16.12;51.23;101532.06;5013190;27;99117;-73
2021/07/08 02:52:27;;;;;;;1999.90;999.90;;;;;;;16.09;51.37;101535.59;5015991;27;97758;-73
2021/07/08 02:54:55;;;;;;;1999.90;999.90;;;;;;;16.04;51.14;101542.72;5003973;27;97265;-71
2021/07/08 02:57:23;;;;;;;1999.90;999.90;;;;;;;15.99;51.19;101541.72;5004910;27;99203;-73
2021/07/08 02:59:51;;;;;;;1999.90;999.90;;;;;;;15.97;51.16;101544.41;5003419;27;97670;-73
2021/07/08 03:02:19;;;;;;;1999.90;999.90;;;;;;;15.98;51.36;101542.59;5005428;27;97951;-72
2021/07/08 03:04:48;;;;;;;1999.90;999.90;;;;;;;15.97;51.59;101539.03;5007368;27;98255;-72
2021/07/08 03:07:17;;;;;;;1999.90;999.90;;;;;;;15.99;51.78;101521.16;5013856;27;98418;-73
2021/07/08 03:09:45;;;;;;;1999.90;999.90;;;;;;;16.00;51.67;101528.34;5011463;27;99246;-73
2021/07/08 03:12:13;;;;;;;1999.90;999.90;;;;;;;16.03;51.75;101527.50;5006280;27;97260;-74
2021/07/08 03:14:40;;;;;;;1999.90;999.90;;;;;;;16.03;51.40;101527.50;5014688;27;98520;-74
2021/07/08 03:17:08;;;;;;;1999.90;999.90;;;;;;;16.04;51.27;101523.91;4992735;28;100595;-74
2021/07/08 03:19:36;;;;;;;1999.90;999.90;;;;;;;16.05;51.37;101526.63;5004410;27;99872;-72
2021/07/08 03:22:04;;;;;;;1999.90;999.90;;;;;;;16.06;51.29;101520.38;5004695;27;98358;-74
2021/07/08 03:24:34;;;;;;;1999.90;999.90;;;;;;;16.05;51.23;101528.38;5001899;27;97921;-74
2021/07/08 03:27:02;;;;;;;1999.90;999.90;;;;;;;16.03;51.26;101528.38;5033964;27;98837;-73
2021/07/08 03:29:30;;;;;;;1999.90;999.90;;;;;;;16.03;51.30;101532.88;5006378;27;100345;-74
2021/07/08 03:31:58;;;;;;;1999.90;999.90;;;;;;;16.03;51.49;101523.00;5011793;27;96806;-73
2021/07/08 03:34:26;;;;;;;1999.90;999.90;;;;;;;16.02;51.59;101526.59;4995548;28;97502;-73
2021/07/08 03:36:53;;;;;;;1999.90;999.90;;;;;;;16.01;51.54;101523.91;5007490;27;97598;-72
2021/07/08 03:39:21;;;;;;;1999.90;999.90;;;;;;;16.02;51.50;101526.59;5007289;27;97779;-72
2021/07/08 03:41:51;;;;;;;1999.90;999.90;;;;;;;16.00;51.52;101525.69;4998978;28;97471;-72
2021/07/08 03:44:19;;;;;;;1999.90;999.90;;;;;;;16.01;51.52;101527.47;4986187;28;97834;-73
2021/07/08 03:46:47;;;;;;;1999.90;999.90;;;;;;;16.03;51.31;101527.50;5003561;27;99249;-73
2021/07/08 03:49:15;;;;;;;1999.90;999.90;;;;;;;16.03;51.38;101525.69;5001216;27;98188;-73
2021/07/08 03:51:43;;;;;;;1999.90;999.90;;;;;;;16.03;51.44;101523.00;4992770;28;97172;-72
2021/07/08 03:54:11;;;;;;;1999.90;999.90;;;;;;;16.02;51.42;101521.22;5004186;27;97067;-73
2021/07/08 03:56:39;;;;;;;1999.90;999.90;;;;;;;16.03;51.77;101520.31;5005192;27;97995;-72
2021/07/08 03:59:08;;;;;;;1999.90;999.90;;;;;;;16.04;51.59;101519.47;5011011;27;99706;-72
2021/07/08 04:01:36;;;;;;;1999.90;999.90;;;;;;;16.04;51.26;101532.88;4986246;28;97757;-73
2021/07/08 04:04:04;;;;;;;1999.90;999.90;;;;;;;16.05;51.59;101525.69;5005576;27;97468;-72
2021/07/08 04:06:32;;;;;;;1999.90;999.90;;;;;;;16.06;51.42;101525.75;5001695;27;97609;-72
2021/07/08 04:09:00;;;;;;;1999.90;999.90;;;;;;;16.06;51.63;101531.13;5004232;27;97803;-72
2021/07/08 04:11:28;;;;;;;1999.90;999.90;;;;;;;16.10;51.58;101540.09;4995341;28;96895;-72
2021/07/08 04:13:56;;;;;;;1999.90;999.90;;;;;;;16.08;51.58;101532.03;5007876;27;97430;-73
2021/07/08 04:16:25;;;;;;;1999.90;999.90;;;;;;;16.06;51.70;101536.50;5010067;27;97676;-71
2021/07/08 04:18:53;;;;;;;1999.90;999.90;;;;;;;16.04;51.43;101545.41;4996464;27;98154;-72
2021/07/08 04:21:20;;;;;;;1999.90;999.90;;;;;;;16.01;51.58;101537.31;5013204;27;97559;-71
2021/07/08 04:23:48;;;;;;;1999.90;999.90;;;;;;;16.02;51.52;101531.06;5015184;27;97295;-72
2021/07/08 04:26:18;;;;;;;1999.90;999.90;;;;;;;16.03;51.44;101536.44;5011885;27;100707;-73
2021/07/08 04:28:46;;;;;;;1999.90;999.90;;;;;;;16.04;51.44;101529.28;4996073;28;98978;-73
2021/07/08 04:31:15;;;;;;;1999.90;999.90;;;;;;;16.04;51.24;101532.88;5011466;27;97274;-72
2021/07/08 04:33:46;;;;;;;1999.90;999.90;;;;;;;16.03;51.76;101525.69;5005824;27;97801;-71
2021/07/08 04:36:14;;;;;;;1999.90;999.90;;;;;;;16.04;51.45;101530.19;5005885;27;99451;-72
2021/07/08 04:38:45;;;;;;;1999.90;999.90;;;;;;;16.08;51.57;101533.81;5000173;27;97730;-72
2021/07/08 04:41:13;;;;;;;1999.90;999.90;;;;;;;16.08;51.73;101532.03;5003486;27;97606;-72
2021/07/08 04:43:41;;;;;;;1999.90;999.90;;;;;;;16.09;51.26;101531.13;5006396;27;98049;-72
2021/07/08 04:46:08;;;;;;;1999.90;999.90;;;;;;;16.13;51.51;101517.72;5006228;27;100950;-71
2021/07/08 04:48:37;;;;;;;1999.90;999.90;;;;;;;16.13;51.50;101515.03;5007761;27;98089;-72
2021/07/08 04:51:06;;;;;;;1999.90;999.90;;;;;;;16.14;51.48;101519.56;4991992;28;96653;-72
2021/07/08 04:53:34;;;;;;;1999.90;999.90;;;;;;;16.17;51.43;101524.94;5010753;27;98056;-71
2021/07/08 04:56:01;;;;;;;1999.90;999.90;;;;;;;16.19;51.46;101523.19;5003958;27;98829;-72
2021/07/08 04:58:31;;;;;;;1999.90;999.90;;;;;;;16.20;51.43;101528.56;5017828;27;98083;-73
2021/07/08 05:00:59;;;;;;;1999.90;999.90;;;;;;;16.24;51.51;101521.44;5004804;27;96902;-72
2021/07/08 05:03:27;;;;;;;1999.90;999.90;;;;;;;16.26;51.15;101530.41;4995753;28;97323;-72
2021/07/08 05:05:55;;;;;;;1999.90;999.90;;;;;;;16.26;51.35;101530.41;5001786;27;100377;-72
2021/07/08 05:08:24;;;;;;;1999.90;999.90;;;;;;;16.28;51.51;101528.63;5005775;27;97649;-72
2021/07/08 05:10:52;;;;;;;1999.90;999.90;;;;;;;16.30;51.19;101522.41;5004862;27;97915;-72
2021/07/08 05:13:20;;;;;;;1999.90;999.90;;;;;;;16.32;51.07;101525.09;5012832;27;97267;-72
2021/07/08 05:15:47;;;;;;;1999.90;999.90;;;;;;;16.31;51.18;101523.28;5016569;27;99377;-72
2021/07/08 05:18:15;;;;;;;1999.90;999.90;;;;;;;16.32;51.19;101527.78;5006258;27;97860;-72
2021/07/08 05:20:44;;;;;;;1999.90;999.90;;;;;;;16.32;51.29;101526.00;5017383;27;97810;-72
2021/07/08 05:23:16;;;;;;;1999.90;999.90;;;;;;;16.35;51.41;101527.78;5000939;27;97956;-70
2021/07/08 05:25:46;;;;;;;1999.90;999.90;;;;;;;16.36;51.56;101529.63;5014594;27;99450;-72
2021/07/08 05:28:14;;;;;;;1999.90;999.90;;;;;;;16.39;51.63;101538.59;5002103;27;98133;-72
2021/07/08 05:30:42;;;;;;;1999.90;999.90;;;;;;;16.42;51.25;101537.72;5002531;27;97208;-72
2021/07/08 05:33:10;;;;;;;1999.90;999.90;;;;;;;16.45;51.33;101533.25;5006072;27;98264;-70
2021/07/08 05:35:38;;;;;;;1999.90;999.90;;;;;;;16.48;51.14;101554.81;5001157;27;97878;-70
2021/07/08 05:38:07;;;;;;;1999.90;999.90;;;;;;;16.51;51.19;101554.81;5003675;27;98396;-72
2021/07/08 05:40:35;;;;;;;1999.90;999.90;;;;;;;16.17;52.33;101551.78;4988637;27;98243;-72
2021/07/08 05:43:05;;;;;;;1999.90;999.90;;;;;;;16.04;52.36;101554.38;5005410;27;97565;-70
2021/07/08 05:45:33;;;;;;;1999.90;999.90;;;;;;;15.96;52.68;101553.31;5009707;27;97978;-72
2021/07/08 05:48:01;;;;;;;1999.90;999.90;;;;;;;16.29;52.00;101562.69;4993238;27;100505;-71
2021/07/08 05:50:29;;;;;;;1999.90;999.90;;;;;;;16.40;51.81;101566.34;4999715;27;97891;-71
2021/07/08 05:52:57;;;;;;;1999.90;999.90;;;;;;;16.47;51.61;101566.41;5006070;27;97254;-71
2021/07/08 05:55:24;;;;;;;1999.90;999.90;;;;;;;16.53;51.45;101568.25;5003364;27;99296;-71
2021/07/08 05:57:53;;;;;;;1999.90;999.90;;;;;;;16.63;51.23;101571.06;5002281;27;100374;-71
2021/07/08 06:00:23;;;;;;;1999.90;999.90;;;;;;;16.67;51.22;101569.31;5007783;27;97315;-71
2021/07/08 06:02:51;;;;;;;1999.90;999.90;;;;;;;16.70;51.44;101572.00;5008609;27;97152;-71
2021/07/08 06:05:19;;;;;;;1999.90;999.90;;;;;;;16.67;51.64;101564.81;5012178;27;100614;-71
2021/07/08 06:07:47;;;;;;;1999.90;999.90;;;;;;;16.72;51.54;101573.88;4992985;27;100392;-71
2021/07/08 06:10:16;;;;;;;1999.90;999.90;;;;;;;16.74;51.46;101568.50;5000400;27;97138;-71
2021/07/08 06:12:46;;;;;;;1999.90;999.90;;;;;;;16.78;51.64;101576.59;5005269;27;97312;-71
2021/07/08 06:15:15;;;;;;;1999.90;999.90;;;;;;;16.82;51.53;101574.81;5003830;27;99382;-71
2021/07/08 06:17:44;;;;;;;1999.90;999.90;;;;;;;16.85;51.67;101580.25;5004845;27;97940;-70
2021/07/08 06:20:14;;;;;;;1999.90;999.90;;;;;;;16.89;51.35;101576.66;4995778;27;97691;-71
2021/07/08 06:22:41;;;;;;;1999.90;999.90;;;;;;;16.89;51.28;101572.19;5004265;27;97601;-71
2021/07/08 06:25:10;;;;;;;1999.90;999.90;;;;;;;16.95;51.57;101574.03;5000773;27;97785;-71
2021/07/08 06:27:38;;;;;;;1999.90;999.90;;;;;;;16.97;51.33;101573.19;5002942;27;100616;-71
2021/07/08 06:30:08;;;;;;;1999.90;999.90;;;;;;;17.01;51.43;101566.94;5007436;27;96912;-70
2021/07/08 06:32:36;;;;;;;1999.90;999.90;;;;;;;17.06;51.08;101570.56;5012192;27;96905;-71
2021/07/08 06:35:08;;;;;;;1999.90;999.90;;;;;;;17.12;51.13;101569.69;5009711;27;97679;-71
2021/07/08 06:37:35;;;;;;;1999.90;999.90;;;;;;;17.18;51.01;101571.53;5003137;27;97824;-72
2021/07/08 06:40:04;;;;;;;1999.90;999.90;;;;;;;17.20;50.83;101578.69;5005395;27;97634;-71
2021/07/08 06:42:32;;;;;;;1999.90;999.90;;;;;;;17.24;50.79;101571.53;5005580;27;97649;-71
2021/07/08 06:44:59;;;;;;;1999.90;999.90;;;;;;;17.30;50.64;101577.88;5002252;27;98778;-70
2021/07/08 06:47:36;;;;;;;1999.90;999.90;;;;;;;17.34;50.61;101574.31;5001332;27;99208;-71
2021/07/08 06:50:07;;;;;;;1999.90;999.90;;;;;;;17.39;50.45;101580.66;5013817;27;97837;-72
2021/07/08 06:52:34;;;;;;;1999.90;999.90;;;;;;;17.41;50.41;101586.94;5000358;27;99543;-71
2021/07/08 06:55:03;;;;;;;1999.90;999.90;;;;;;;17.46;50.13;101579.78;5003775;27;98809;-71
2021/07/08 06:57:30;;;;;;;1999.90;999.90;;;;;;;17.53;50.26;101587.00;5003188;27;97721;-71
2021/07/08 06:59:58;;;;;;;1999.90;999.90;;;;;;;17.56;50.08;101594.22;5005337;27;96821;-71
2021/07/08 07:02:26;;;;;;;1999.90;999.90;;;;;;;17.61;49.94;101585.25;5005457;27;97440;-71
2021/07/08 07:04:54;;;;;;;1999.90;999.90;;;;;;;17.68;49.86;101580.81;5006504;27;98831;-70
2021/07/08 07:07:23;;;;;;;1999.90;999.90;;;;;;;17.73;49.78;101587.13;5003665;27;99091;-72
2021/07/08 07:09:50;;;;;;;1999.90;999.90;;;;;;;17.79;49.76;101595.22;5003268;27;97283;-72
2021/07/08 07:12:18;;;;;;;1999.90;999.90;;;;;;;17.85;49.26;101592.56;4994463;28;97115;-71
2021/07/08 07:14:46;;;;;;;1999.90;999.90;;;;;;;17.85;49.49;101590.78;5000296;27;97978;-70
2021/07/08 07:17:14;;;;;;;1999.90;999.90;;;;;;;17.87;49.30;101601.53;5002712;27;99147;-72
2021/07/08 07:19:41;;;;;;;1999.90;999.90;;;;;;;17.93;49.19;101613.22;5004008;27;97189;-72
2021/07/08 07:22:09;;;;;;;1999.90;999.90;;;;;;;17.99;49.22;101615.94;5001358;27;97656;-70
2021/07/08 07:24:40;;;;;;;1999.90;999.90;;;;;;;18.03;49.17;101598.91;5005294;27;100533;-71
2021/07/08 07:27:08;;;;;;;1999.90;999.90;;;;;;;18.10;48.87;101598.94;5009695;27;97630;-71
2021/07/08 07:29:35;;;;;;;1999.90;999.90;;;;;;;18.15;48.88;101598.06;5000519;27;97084;-72
2021/07/08 07:32:04;;;;;;;1999.90;999.90;;;;;;;18.20;48.67;101595.41;5009550;27;97555;-71
2021/07/08 07:34:32;;;;;;;1999.90;999.90;;;;;;;18.25;48.58;101599.00;5006496;27;97664;-72
2021/07/08 07:37:01;;;;;;;1999.90;999.90;;;;;;;18.28;48.63;101590.91;5004197;27;100486;-72
2021/07/08 07:39:29;;;;;;;1999.90;999.90;;;;;;;18.35;48.56;101590.94;5003910;27;97736;-72
2021/07/08 07:41:58;;;;;;;1999.90;999.90;;;;;;;18.37;48.48;101589.13;5002647;27;97463;-71
2021/07/08 07:44:26;;;;;;;1999.90;999.90;;;;;;;18.41;48.54;101598.13;5000671;27;99939;-70
2021/07/08 07:46:55;;;;;;;1999.90;999.90;;;;;;;18.45;48.45;101591.84;5003050;27;99176;-71
2021/07/08 07:49:24;;;;;;;1999.90;999.90;;;;;;;18.45;47.73;101602.63;5003977;27;97630;-71
2021/07/08 07:51:51;;;;;;;1999.90;999.90;;;;;;;18.50;48.04;101607.13;5005174;27;98125;-71
2021/07/08 07:54:19;;;;;;;1999.90;999.90;;;;;;;18.52;47.60;101605.34;5002956;27;99256;-70
2021/07/08 07:56:47;;;;;;;1999.90;999.90;;;;;;;18.54;47.26;101594.56;5000426;27;98882;-72
2021/07/08 07:59:16;;;;;;;1999.90;999.90;;;;;;;18.58;47.53;101596.38;4984350;28;97352;-72
2021/07/08 08:01:44;;;;;;;1999.90;999.90;;;;;;;18.60;47.68;101591.88;4993752;28;97874;-72
2021/07/08 08:04:12;;;;;;;1999.90;999.90;;;;;;;18.64;47.44;101599.97;5001667;27;97650;-71
2021/07/08 08:09:25;;;;;;;1999.90;999.90;;;;;;;18.71;47.48;101577.56;5000333;27;97272;-72
2021/07/08 08:11:54;;;;;;;1999.90;999.90;;;;;;;18.75;47.70;101589.25;5006961;27;96934;-72
2021/07/08 08:14:23;;;;;;;1999.90;999.90;;;;;;;18.59;47.74;101587.38;5033612;27;98004;-72
2021/07/08 08:16:51;;;;;;;1999.90;999.90;;;;;;;18.56;48.12;101587.38;5005120;27;97780;-72
2021/07/08 08:19:19;;;;;;;1999.90;999.90;;;;;;;18.73;47.21;101585.63;5000945;27;97870;-71
2021/07/08 08:21:46;;;;;;;1999.90;999.90;;;;;;;18.66;47.41;101594.59;5004868;27;96797;-71
2021/07/08 08:24:14;;;;;;;1999.90;999.90;;;;;;;18.66;47.93;101583.81;4991690;27;101325;-72
2021/07/08 08:26:42;;;;;;;1999.90;999.90;;;;;;;18.66;47.87;101581.13;5009599;27;97656;-72
2021/07/08 08:29:10;;;;;;;1999.90;999.90;;;;;;;18.67;47.83;101580.19;5011053;27;97080;-72
2021/07/08 08:31:39;;;;;;;1999.90;999.90;;;;;;;18.68;47.85;101587.38;4997647;27;97195;-72
2021/07/08 08:34:07;;;;;;;1999.90;999.90;;;;;;;18.68;47.67;101582.94;4999503;27;99093;-72
2021/07/08 08:36:35;;;;;;;1999.90;999.90;;;;;;;18.65;47.73;101588.28;5008977;27;97732;-70
2021/07/08 08:39:03;;;;;;;1999.90;999.90;;;;;;;18.81;46.98;101602.69;4989119;27;96927;-72
2021/07/08 08:41:33;;;;;;;1999.90;999.90;;;;;;;18.90;46.80;101600.00;5012423;27;97409;-71
2021/07/08 08:44:01;;;;;;;1999.90;999.90;;;;;;;18.98;46.24;101598.22;5002587;27;100751;-71
2021/07/08 08:46:29;;;;;;;1999.90;999.90;;;;;;;19.08;46.31;101601.81;5006814;27;98067;-72
2021/07/08 08:48:58;;;;;;;1999.90;999.90;;;;;;;19.13;45.39;101606.31;5013654;27;97243;-71
2021/07/08 08:51:26;;;;;;;1999.90;999.90;;;;;;;19.18;44.67;101608.97;5006834;27;97916;-71
2021/07/08 08:53:54;;;;;;;1999.90;999.90;;;;;;;19.22;45.17;101611.69;5002929;27;100653;-71
2021/07/08 08:56:21;;;;;;;1999.90;999.90;;;;;;;19.24;44.46;101625.19;5006798;27;97293;-70
2021/07/08 08:58:49;;;;;;;1999.90;999.90;;;;;;;19.07;45.53;101625.19;4996537;27;97433;-72
2021/07/08 09:01:18;;;;;;;1999.90;999.90;;;;;;;18.97;45.96;101635.06;5011387;27;97385;-72
2021/07/08 09:03:46;;;;;;;1999.90;999.90;;;;;;;18.89;45.80;101631.50;5006964;27;97806;-73
2021/07/08 09:06:17;;;;;;;1999.90;999.90;;;;;;;18.83;45.96;101633.28;5000010;28;100328;-72
2021/07/08 09:08:47;;;;;;;1999.90;999.90;;;;;;;18.79;46.20;101636.84;5011552;27;97398;-73
2021/07/08 09:11:17;;;;;;;1999.90;999.90;;;;;;;18.72;46.16;101629.66;5013919;27;97625;-72
2021/07/08 09:13:47;;;;;;;1999.90;999.90;;;;;;;18.66;46.35;101638.59;5006796;27;99005;-72
2021/07/08 09:16:18;;;;;;;1999.90;999.90;;;;;;;18.64;46.45;101635.00;5005571;27;100403;-70
2021/07/08 09:19:05;;;;;;;1999.90;999.90;;;;;;;18.58;46.53;101634.13;5010538;27;96958;-72
2021/07/08 09:21:37;;;;;;;1999.90;999.90;;;;;;;18.56;46.81;101633.22;5004493;27;97163;-72
2021/07/08 09:24:09;;;;;;;1999.90;999.90;;;;;;;18.72;46.18;101632.34;5008302;27;97960;-71
2021/07/08 09:26:39;;;;;;;1999.90;999.90;;;;;;;18.58;46.56;101628.72;5012913;27;100537;-72
2021/07/08 09:29:11;;;;;;;1999.90;999.90;;;;;;;18.55;46.35;101631.44;5013700;27;97548;-72
2021/07/08 09:31:40;;;;;;;1999.90;999.90;;;;;;;18.52;46.59;101621.53;5010737;27;97947;-72
2021/07/08 09:34:15;;;;;;;1999.90;999.90;;;;;;;18.45;46.54;101614.31;5001628;27;99764;-72
2021/07/08 09:36:45;;;;;;;1999.90;999.90;;;;;;;18.41;46.62;101626.00;5004221;27;100491;-71
2021/07/08 09:39:13;;;;;;;1999.90;999.90;;;;;;;18.36;46.63;101614.31;5007193;27;97892;-71
2021/07/08 09:41:52;;;;;;;1999.90;999.90;;;;;;;18.31;46.68;101634.06;5006767;27;97826;-72
2021/07/08 09:44:21;;;;;;;1999.90;999.90;;;;;;;18.27;46.85;101622.38;5009751;27;99655;-71
2021/07/08 09:46:50;;;;;;;1999.90;999.90;;;;;;;18.22;47.14;101617.88;5018120;27;97791;-70
2021/07/08 09:49:18;;;;;;;1999.90;999.90;;;;;;;18.20;47.11;101625.03;5011653;27;97705;-73
2021/07/08 09:51:47;;;;;;;1999.90;999.90;;;;;;;18.19;47.29;101625.91;5006242;27;97718;-72
2021/07/08 09:54:18;;;;;;;1999.90;999.90;;;;;;;18.41;46.26;101615.22;5005694;27;99997;-72
2021/07/08 09:56:48;;;;;;;1999.90;999.90;;;;;;;18.30;46.54;101610.69;4990733;27;99606;-72
2021/07/08 09:59:20;;;;;;;1999.90;999.90;;;;;;;18.26;46.69;101609.78;5007176;27;97227;-71
2021/07/08 10:01:56;;;;;;;1999.90;999.90;;;;;;;18.24;46.67;101605.28;5010750;27;96941;-72
2021/07/08 10:04:24;;;;;;;1999.90;999.90;;;;;;;18.25;46.90;101607.06;5002078;27;99355;-72
2021/07/08 10:06:55;;;;;;;1999.90;999.90;;;;;;;18.31;46.79;101597.25;5005076;27;99119;-72
2021/07/08 10:09:24;;;;;;;1999.90;999.90;;;;;;;18.23;47.09;101587.31;5002057;27;96782;-72
2021/07/08 10:11:54;;;;;;;1999.90;999.90;;;;;;;18.21;46.99;101578.31;5018950;27;98207;-72
2021/07/08 10:14:23;;;;;;;1999.90;999.90;;;;;;;18.16;46.94;101569.34;5004304;27;99131;-72
2021/07/08 10:16:53;;;;;;;1999.90;999.90;;;;;;;18.17;46.94;101566.66;5005418;27;99222;-71
2021/07/08 10:19:23;;;;;;;1999.90;999.90;;;;;;;18.18;47.16;101556.78;5005582;27;97624;-71
2021/07/08 10:21:52;;;;;;;1999.90;999.90;;;;;;;18.15;47.30;101560.34;5006568;27;97127;-72
2021/07/08 10:24:23;;;;;;;1999.90;999.90;;;;;;;18.16;47.11;101567.56;5008251;27;100768;-72
2021/07/08 10:26:50;;;;;;;1999.90;999.90;;;;;;;18.15;47.12;101583.72;5003650;27;99126;-72
2021/07/08 10:29:19;;;;;;;1999.90;999.90;;;;;;;18.16;47.24;101590.91;5013319;27;97350;-72
2021/07/08 10:31:50;;;;;;;1999.90;999.90;;;;;;;18.12;47.16;101598.06;5007622;27;97959;-72
2021/07/08 10:34:19;;;;;;;1999.90;999.90;;;;;;;18.09;47.34;101610.63;5005453;27;98152;-72
2021/07/08 10:36:49;;;;;;;1999.90;999.90;;;;;;;18.08;47.39;101609.72;5003735;27;98643;-73
2021/07/08 10:39:19;;;;;;;1999.90;999.90;;;;;;;18.11;47.21;101614.22;5006601;27;97021;-71
2021/07/08 10:41:53;;;;;;;1999.90;999.90;;;;;;;18.12;47.27;101603.47;5003450;28;97890;-72
2021/07/08 10:44:47;;;;;;;1999.90;999.90;;;;;;;18.08;47.26;101606.13;5016511;27;98719;-71
2021/07/08 10:47:42;;;;;;;1999.90;999.90;;;;;;;18.11;47.38;101603.47;5011252;27;98927;-72
2021/07/08 10:50:34;;;;;;;1999.90;999.90;;;;;;;18.15;47.44;101600.75;5003142;27;96921;-72
2021/07/08 10:53:18;;;;;;;1999.90;999.90;;;;;;;18.16;47.47;101604.38;4983124;27;97197;-72
2021/07/08 10:55:47;;;;;;;1999.90;999.90;;;;;;;18.15;47.42;101605.28;5007795;27;98889;-72
2021/07/08 10:58:49;;;;;;;1999.90;999.90;;;;;;;18.14;47.44;101608.84;5008991;27;99258;-70